Time;durP1;ratioP1;P1;durP2;ratioP2;P2;SDS_P1;SDS_P2;PMS_P1;PMS_P2;Temp;Humidity;BMP_temperature;BMP_pressure;BME280_temperature;BME280_humidity;BME280_pressure;Samples;Min_cycle;Max_cycle;Signal;HPM_P1;HPM_P2
2021/10/15 00:00:22;;;;;;;12.57;9.60;;;6.60;99.90;;;;;;5013580;28;20112;-73
2021/10/15 00:02:48;;;;;;;12.90;9.90;;;6.60;99.90;;;;;;5013950;28;20069;-72
2021/10/15 00:05:14;;;;;;;14.52;10.00;;;6.60;99.90;;;;;;5013782;28;20397;-72
2021/10/15 00:07:39;;;;;;;15.15;9.48;;;6.70;99.90;;;;;;5013185;28;20026;-73
2021/10/15 00:10:06;;;;;;;11.95;10.18;;;6.70;99.90;;;;;;5013961;28;20036;-74
2021/10/15 00:12:35;;;;;;;12.52;9.38;;;6.60;99.90;;;;;;5013751;28;20018;-73
2021/10/15 00:15:02;;;;;;;15.60;10.55;;;6.50;99.90;;;;;;5013850;28;20037;-73
2021/10/15 00:17:27;;;;;;;10.63;9.07;;;6.60;99.90;;;;;;5013063;28;20121;-71
2021/10/15 00:19:53;;;;;;;16.05;9.30;;;6.60;99.90;;;;;;5007964;28;20072;-72
2021/10/15 00:22:18;;;;;;;11.48;7.97;;;6.50;99.90;;;;;;4993916;28;20041;-73
2021/10/15 00:24:44;;;;;;;11.10;8.82;;;6.50;99.90;;;;;;5010162;28;20026;-73
2021/10/15 00:27:09;;;;;;;13.82;8.82;;;6.60;99.90;;;;;;5013677;28;20030;-72
2021/10/15 00:29:35;;;;;;;14.18;8.65;;;6.60;99.90;;;;;;5013524;28;20030;-72
2021/10/15 00:32:01;;;;;;;12.18;8.40;;;6.60;99.90;;;;;;5013245;28;20535;-71
2021/10/15 00:34:26;;;;;;;15.48;8.60;;;6.50;99.90;;;;;;5013226;28;20374;-71
2021/10/15 00:36:52;;;;;;;13.48;7.80;;;6.50;99.90;;;;;;5016488;28;20037;-72
2021/10/15 00:39:17;;;;;;;11.45;8.20;;;6.50;99.90;;;;;;5014582;28;20022;-72
2021/10/15 00:41:43;;;;;;;10.43;8.63;;;6.50;99.90;;;;;;5013898;28;20022;-74
2021/10/15 00:44:11;;;;;;;8.85;7.95;;;6.40;99.90;;;;;;5013630;28;20053;-72
2021/10/15 00:46:38;;;;;;;11.80;8.45;;;6.40;99.90;;;;;;5013698;28;20021;-72
2021/10/15 00:49:06;;;;;;;9.95;8.52;;;6.30;99.90;;;;;;5011957;28;20032;-71
2021/10/15 00:51:32;;;;;;;11.52;9.23;;;6.30;99.90;;;;;;4995061;28;20034;-72
2021/10/15 00:53:59;;;;;;;10.95;9.20;;;6.40;99.90;;;;;;4998680;28;20037;-72
2021/10/15 00:56:26;;;;;;;15.60;9.43;;;6.40;99.90;;;;;;5014536;28;20482;-72
2021/10/15 00:58:52;;;;;;;14.15;8.82;;;6.30;99.90;;;;;;5013408;28;20518;-71
2021/10/15 01:01:18;;;;;;;10.75;8.95;;;6.20;99.90;;;;;;5013098;28;20014;-72
2021/10/15 01:03:43;;;;;;;10.82;7.88;;;6.20;99.90;;;;;;5012725;28;20103;-71
2021/10/15 01:06:09;;;;;;;11.13;8.95;;;6.20;99.90;;;;;;5012520;28;20018;-72
2021/10/15 01:08:40;;;;;;;9.55;8.55;;;6.20;99.90;;;;;;5013259;28;20379;-70
2021/10/15 01:11:06;;;;;;;9.02;8.13;;;6.20;99.90;;;;;;4993413;28;20486;-72
2021/10/15 01:13:33;;;;;;;10.35;8.15;;;6.10;99.90;;;;;;5013603;28;20080;-72
2021/10/15 01:16:06;;;;;;;13.25;9.23;;;6.10;99.90;;;;;;5012996;28;20057;-72
2021/10/15 01:18:33;;;;;;;10.02;9.00;;;6.00;99.90;;;;;;5012344;28;20073;-72
2021/10/15 01:20:59;;;;;;;10.65;9.52;;;6.00;99.90;;;;;;5012015;28;20018;-71
2021/10/15 01:23:25;;;;;;;12.00;9.18;;;6.00;99.90;;;;;;5012506;28;20042;-71
2021/10/15 01:25:53;;;;;;;11.98;9.00;;;6.00;99.90;;;;;;5019620;28;20036;-72
2021/10/15 01:28:20;;;;;;;12.40;10.32;;;6.00;99.90;;;;;;5034592;28;20229;-71
2021/10/15 01:30:46;;;;;;;14.52;12.07;;;6.00;99.90;;;;;;5036602;28;20014;-71
2021/10/15 01:33:12;;;;;;;16.75;13.77;;;6.00;99.90;;;;;;5034676;28;20049;-71
2021/10/15 01:35:38;;;;;;;20.42;15.02;;;6.00;99.90;;;;;;5020216;28;20501;-73
2021/10/15 01:38:04;;;;;;;20.38;16.38;;;6.10;99.90;;;;;;5019766;28;20033;-72
2021/10/15 01:40:29;;;;;;;19.90;15.95;;;6.10;99.90;;;;;;5018988;28;20026;-72
2021/10/15 01:42:55;;;;;;;17.25;15.00;;;6.00;99.90;;;;;;5017795;28;20061;-72
2021/10/15 01:45:26;;;;;;;18.30;14.00;;;6.00;99.90;;;;;;5017427;28;20026;-72
2021/10/15 01:47:52;;;;;;;18.83;14.27;;;6.10;99.90;;;;;;5016443;28;20039;-72
2021/10/15 01:50:19;;;;;;;25.95;15.25;;;6.00;99.90;;;;;;5016513;28;20018;-72
2021/10/15 01:52:45;;;;;;;21.42;16.63;;;5.90;99.90;;;;;;5016449;28;20113;-73
2021/10/15 01:55:11;;;;;;;20.27;15.25;;;5.80;99.90;;;;;;5016416;28;20536;-72
2021/10/15 01:57:38;;;;;;;20.13;16.80;;;5.90;99.90;;;;;;5016837;28;20075;-74
2021/10/15 02:00:06;;;;;;;18.13;14.13;;;5.80;99.90;;;;;;4998499;28;20172;-70
2021/10/15 02:02:31;;;;;;;17.00;15.13;;;5.90;99.90;;;;;;5024482;28;20029;-71
2021/10/15 02:04:57;;;;;;;14.88;13.38;;;5.80;99.90;;;;;;5021504;28;20471;-73
2021/10/15 02:07:23;;;;;;;14.85;13.35;;;5.80;99.90;;;;;;5015206;28;20034;-72
2021/10/15 02:09:49;;;;;;;14.77;12.95;;;5.80;99.90;;;;;;5016832;28;20025;-72
2021/10/15 02:12:14;;;;;;;13.95;12.35;;;5.80;99.90;;;;;;5015971;28;20045;-72
2021/10/15 02:14:40;;;;;;;13.63;11.52;;;5.80;99.90;;;;;;5021472;28;20021;-72
2021/10/15 02:17:06;;;;;;;14.45;12.73;;;5.70;99.90;;;;;;5015875;28;20092;-72
2021/10/15 02:19:31;;;;;;;13.60;11.45;;;5.70;99.90;;;;;;5015557;28;20037;-72
2021/10/15 02:21:57;;;;;;;20.08;11.63;;;5.70;99.90;;;;;;5015295;28;20203;-72
2021/10/15 02:24:23;;;;;;;13.80;11.55;;;5.70;99.90;;;;;;5039172;23;20494;-71
2021/10/15 02:26:49;;;;;;;15.18;11.35;;;5.70;99.90;;;;;;5015754;28;20037;-71
2021/10/15 02:29:15;;;;;;;14.52;11.43;;;5.70;99.90;;;;;;5015607;28;20057;-71
2021/10/15 02:31:40;;;;;;;12.52;10.90;;;5.70;99.90;;;;;;5015504;28;20017;-71
2021/10/15 02:34:06;;;;;;;14.13;9.77;;;5.60;99.90;;;;;;5032937;28;20418;-72
2021/10/15 02:36:32;;;;;;;16.17;11.10;;;5.70;99.90;;;;;;5018514;28;20779;-72
2021/10/15 02:38:58;;;;;;;11.88;10.68;;;5.60;99.90;;;;;;5034778;28;20048;-73
2021/10/15 02:41:23;;;;;;;11.85;10.68;;;5.70;99.90;;;;;;5017241;28;20029;-72
2021/10/15 02:43:49;;;;;;;13.98;10.00;;;5.60;99.90;;;;;;5035349;28;20049;-72
2021/10/15 02:46:15;;;;;;;12.05;10.07;;;5.60;99.90;;;;;;5034971;28;20036;-73
2021/10/15 02:48:41;;;;;;;11.63;10.20;;;5.60;99.90;;;;;;5034915;28;20031;-72
2021/10/15 02:51:07;;;;;;;11.10;9.13;;;5.60;99.90;;;;;;5035639;28;20026;-72
2021/10/15 02:53:33;;;;;;;10.60;9.60;;;5.60;99.90;;;;;;5036588;28;20029;-72
2021/10/15 02:55:58;;;;;;;12.00;10.80;;;5.60;99.90;;;;;;5017511;28;20025;-72
2021/10/15 02:58:24;;;;;;;11.75;10.55;;;5.50;99.90;;;;;;5034752;28;20030;-71
2021/10/15 03:00:52;;;;;;;8.20;7.40;;;5.50;99.90;;;;;;5035429;28;20439;-72
2021/10/15 03:03:18;;;;;;;14.00;9.90;;;5.50;99.90;;;;;;5036366;28;20037;-71
2021/10/15 03:05:44;;;;;;;14.23;8.20;;;5.60;99.90;;;;;;5045864;28;20457;-73
2021/10/15 03:08:09;;;;;;;9.10;8.20;;;5.60;99.90;;;;;;5040630;28;20037;-70
2021/10/15 03:10:35;;;;;;;11.57;7.97;;;5.70;99.90;;;;;;5047154;28;20025;-71
2021/10/15 03:13:02;;;;;;;10.38;7.82;;;5.70;99.90;;;;;;5046018;28;20038;-71
2021/10/15 03:15:28;;;;;;;9.45;7.20;;;5.80;99.90;;;;;;5037363;28;20032;-72
2021/10/15 03:17:55;;;;;;;10.70;7.60;;;5.80;99.90;;;;;;5035061;28;20025;-72
2021/10/15 03:20:21;;;;;;;8.10;7.30;;;5.70;99.90;;;;;;5035735;28;20451;-74
2021/10/15 03:22:47;;;;;;;8.57;7.63;;;5.70;99.90;;;;;;5034679;28;20030;-71
2021/10/15 03:25:12;;;;;;;7.93;6.85;;;5.70;99.90;;;;;;5034392;28;20041;-72
2021/10/15 03:27:38;;;;;;;9.85;7.63;;;5.60;99.90;;;;;;5034052;28;20021;-71
2021/10/15 03:30:05;;;;;;;8.93;7.93;;;5.60;99.90;;;;;;5034710;28;20036;-72
2021/10/15 03:32:30;;;;;;;16.15;7.72;;;5.60;99.90;;;;;;5034564;28;20038;-71
2021/10/15 03:34:56;;;;;;;12.93;8.60;;;5.50;99.90;;;;;;5035098;28;20413;-72
2021/10/15 03:37:23;;;;;;;9.02;7.97;;;5.50;99.90;;;;;;5034245;28;20487;-74
2021/10/15 03:39:52;;;;;;;11.35;8.45;;;5.40;99.90;;;;;;5034955;28;20024;-73
2021/10/15 03:42:18;;;;;;;19.33;9.77;;;5.40;99.90;;;;;;5033877;28;20026;-71
2021/10/15 03:44:44;;;;;;;9.70;8.00;;;5.40;99.90;;;;;;5033977;28;20400;-71
2021/10/15 03:47:10;;;;;;;9.23;7.65;;;5.40;99.90;;;;;;5033758;28;20390;-72
2021/10/15 03:49:35;;;;;;;10.27;7.65;;;5.30;99.90;;;;;;5033954;28;20104;-72
2021/10/15 03:52:01;;;;;;;11.43;9.00;;;5.40;99.90;;;;;;5033622;28;20061;-72
2021/10/15 03:54:27;;;;;;;8.15;7.35;;;5.40;99.90;;;;;;5034209;28;20029;-71
2021/10/15 03:56:52;;;;;;;10.55;9.25;;;5.30;99.90;;;;;;5034523;28;20048;-71
2021/10/15 03:59:18;;;;;;;10.13;8.98;;;5.30;99.90;;;;;;5034284;28;20108;-73
2021/10/15 04:01:44;;;;;;;15.20;8.05;;;5.30;99.90;;;;;;5033579;28;20397;-72
2021/10/15 04:04:09;;;;;;;12.00;9.50;;;5.30;99.90;;;;;;5034462;28;20029;-72
2021/10/15 04:06:35;;;;;;;10.18;8.43;;;5.30;99.90;;;;;;5033279;28;20014;-72
2021/10/15 04:09:00;;;;;;;15.23;10.23;;;5.20;99.90;;;;;;5033419;28;20061;-72
2021/10/15 04:11:26;;;;;;;10.30;7.45;;;5.20;99.90;;;;;;5014259;28;20026;-72
2021/10/15 04:13:52;;;;;;;9.50;8.25;;;5.20;99.90;;;;;;5033251;28;20036;-73
2021/10/15 04:16:17;;;;;;;11.07;8.55;;;5.10;99.90;;;;;;5033376;28;20477;-73
2021/10/15 04:18:43;;;;;;;9.40;7.60;;;5.20;99.90;;;;;;5032705;28;20026;-73
2021/10/15 04:21:08;;;;;;;10.95;7.80;;;5.20;99.90;;;;;;5033127;28;20029;-73
2021/10/15 04:23:34;;;;;;;11.45;7.60;;;5.20;99.90;;;;;;5033285;28;20030;-73
2021/10/15 04:26:00;;;;;;;10.13;7.97;;;5.20;99.90;;;;;;5032972;28;20037;-73
2021/10/15 04:28:26;;;;;;;15.68;7.15;;;5.20;99.90;;;;;;5029247;28;20083;-72
2021/10/15 04:30:51;;;;;;;10.18;7.93;;;5.20;99.90;;;;;;5034200;28;20033;-72
2021/10/15 04:33:17;;;;;;;11.75;8.07;;;5.30;99.90;;;;;;5023890;28;20429;-71
2021/10/15 04:35:43;;;;;;;9.02;7.93;;;5.20;99.90;;;;;;5033885;28;20037;-72
2021/10/15 04:38:08;;;;;;;10.00;8.15;;;5.20;99.90;;;;;;5033702;28;20033;-72
2021/10/15 04:40:34;;;;;;;12.27;8.30;;;5.20;99.90;;;;;;5016235;28;20103;-73
2021/10/15 04:42:59;;;;;;;14.52;8.70;;;5.20;99.90;;;;;;5034788;28;20033;-73
2021/10/15 04:45:25;;;;;;;9.57;7.78;;;5.30;99.90;;;;;;5036311;28;20025;-72
2021/10/15 04:47:50;;;;;;;12.45;8.00;;;5.20;99.90;;;;;;5034815;28;20104;-72
2021/10/15 04:50:16;;;;;;;11.20;8.05;;;5.20;99.90;;;;;;5033857;28;20029;-74
2021/10/15 04:52:41;;;;;;;12.20;7.55;;;5.10;99.90;;;;;;5033472;28;20021;-73
2021/10/15 04:55:07;;;;;;;12.55;8.05;;;5.20;99.90;;;;;;5033482;28;20029;-72
2021/10/15 04:57:33;;;;;;;8.50;7.35;;;5.20;99.90;;;;;;5032914;28;20451;-73
2021/10/15 04:59:59;;;;;;;13.40;8.40;;;5.20;99.90;;;;;;5032586;28;20029;-72
2021/10/15 05:02:24;;;;;;;13.65;8.68;;;5.20;99.90;;;;;;5015740;28;20030;-74
2021/10/15 05:04:50;;;;;;;12.60;8.13;;;5.20;99.90;;;;;;5033712;28;20113;-72
2021/10/15 05:07:15;;;;;;;12.15;8.25;;;5.20;99.90;;;;;;5032328;28;20036;-72
2021/10/15 05:09:42;;;;;;;12.68;7.93;;;5.30;99.90;;;;;;5039325;28;20098;-72
2021/10/15 05:12:13;;;;;;;8.20;7.13;;;5.20;99.90;;;;;;5037902;28;20057;-73
2021/10/15 05:14:39;;;;;;;10.85;7.85;;;5.20;99.90;;;;;;5025720;28;20470;-72
2021/10/15 05:17:05;;;;;;;10.65;8.40;;;5.10;99.90;;;;;;5033815;28;20041;-72
2021/10/15 05:19:32;;;;;;;11.88;8.63;;;5.10;99.90;;;;;;5033644;28;20500;-72
2021/10/15 05:21:58;;;;;;;9.10;7.13;;;5.10;99.90;;;;;;5034929;28;20501;-73
2021/10/15 05:24:24;;;;;;;11.05;8.00;;;5.10;99.90;;;;;;5034634;28;20034;-75
2021/10/15 05:26:49;;;;;;;9.85;7.45;;;5.20;99.90;;;;;;5034096;28;20017;-73
2021/10/15 05:29:15;;;;;;;7.65;6.95;;;5.30;99.90;;;;;;5034553;28;20116;-73
2021/10/15 05:31:42;;;;;;;13.15;7.75;;;5.20;99.90;;;;;;5011511;28;20034;-72
2021/10/15 05:34:07;;;;;;;10.20;7.20;;;5.30;99.90;;;;;;5039231;28;20086;-73
2021/10/15 05:36:33;;;;;;;10.77;7.35;;;5.30;99.90;;;;;;5034613;28;20104;-71
2021/10/15 05:38:59;;;;;;;13.63;7.53;;;5.30;99.90;;;;;;5040562;28;20079;-71
2021/10/15 05:41:24;;;;;;;8.95;7.32;;;5.30;99.90;;;;;;5034753;28;20428;-72
2021/10/15 05:43:50;;;;;;;8.10;7.00;;;5.20;99.90;;;;;;5034376;28;20029;-74
2021/10/15 05:46:16;;;;;;;7.82;6.75;;;5.20;99.90;;;;;;5016721;28;20025;-73
2021/10/15 05:48:41;;;;;;;8.15;7.20;;;5.20;99.90;;;;;;5034462;28;20103;-73
2021/10/15 05:51:07;;;;;;;9.80;7.40;;;5.20;99.90;;;;;;5033857;28;20048;-72
2021/10/15 05:53:34;;;;;;;7.50;6.80;;;5.20;99.90;;;;;;5033757;28;20025;-72
2021/10/15 06:01:12;;;;;;;9.50;7.93;;;5.50;99.90;;;;;;5020466;28;20025;-72
2021/10/15 06:03:40;;;;;;;9.05;8.10;;;5.50;99.90;;;;;;5016931;28;20021;-73
2021/10/15 06:16:46;;;;;;;11.45;7.13;;;5.80;99.90;;;;;;5025621;28;20028;-73
2021/10/15 06:19:13;;;;;;;8.07;6.70;;;5.90;99.90;;;;;;5034077;28;20033;-72
2021/10/15 06:21:38;;;;;;;12.80;6.90;;;6.00;99.90;;;;;;5033441;28;20017;-71
2021/10/15 06:24:04;;;;;;;10.13;7.43;;;6.00;99.90;;;;;;5018330;28;20044;-72
2021/10/15 06:26:30;;;;;;;11.82;6.40;;;6.00;99.90;;;;;;5020375;28;20099;-73
2021/10/15 06:28:56;;;;;;;11.65;6.55;;;6.00;99.90;;;;;;5038588;28;20080;-72
2021/10/15 06:31:22;;;;;;;8.05;6.50;;;6.00;99.90;;;;;;5037794;28;20061;-72
2021/10/15 06:33:48;;;;;;;9.18;7.38;;;6.00;99.90;;;;;;5039043;28;20049;-74
2021/10/15 06:36:13;;;;;;;12.88;6.88;;;6.00;99.90;;;;;;5041512;28;20028;-72
2021/10/15 06:38:39;;;;;;;10.55;6.85;;;6.00;99.90;;;;;;5039420;28;20025;-72
2021/10/15 06:41:05;;;;;;;7.95;7.18;;;6.00;99.90;;;;;;5039428;28;20093;-72
2021/10/15 06:43:31;;;;;;;13.00;7.32;;;6.00;99.90;;;;;;5039403;28;20504;-73
2021/10/15 06:45:56;;;;;;;8.48;7.38;;;6.00;99.90;;;;;;5040171;28;20040;-75
2021/10/15 06:48:22;;;;;;;12.57;7.05;;;6.00;99.90;;;;;;5022597;28;20033;-71
2021/10/15 06:50:48;;;;;;;9.75;7.03;;;6.10;99.90;;;;;;5040203;28;20041;-72
2021/10/15 06:53:13;;;;;;;8.98;7.05;;;6.20;99.90;;;;;;5038771;28;20087;-73
2021/10/15 06:55:39;;;;;;;10.25;6.78;;;6.30;99.90;;;;;;5031460;28;20096;-72
2021/10/15 06:58:05;;;;;;;13.38;7.72;;;6.40;99.90;;;;;;5040635;28;20037;-73
2021/10/15 07:00:31;;;;;;;15.35;7.43;;;6.50;99.90;;;;;;5003562;28;20030;-72
2021/10/15 07:02:57;;;;;;;11.95;7.15;;;6.60;99.90;;;;;;5037255;28;20101;-76
2021/10/15 07:05:24;;;;;;;10.00;6.68;;;6.70;99.90;;;;;;5036756;28;20038;-75
2021/10/15 07:07:50;;;;;;;13.40;8.00;;;6.80;99.90;;;;;;5033461;28;20017;-77
2021/10/15 07:10:16;;;;;;;13.65;7.82;;;7.00;99.90;;;;;;5036344;28;20044;-75
2021/10/15 07:12:44;;;;;;;13.20;7.65;;;7.10;99.90;;;;;;5037708;28;20021;-70
2021/10/15 07:15:12;;;;;;;10.73;7.25;;;7.20;99.90;;;;;;5036519;28;20025;-70
2021/10/15 07:17:38;;;;;;;12.40;7.50;;;7.20;99.90;;;;;;5023722;28;20081;-70
2021/10/15 07:20:05;;;;;;;9.85;6.65;;;7.30;99.90;;;;;;5037235;28;20064;-71
2021/10/15 07:22:31;;;;;;;9.85;6.90;;;7.20;99.90;;;;;;5037326;28;20021;-71
2021/10/15 07:24:57;;;;;;;9.20;6.90;;;7.40;99.90;;;;;;5019660;28;20018;-71
2021/10/15 07:27:23;;;;;;;8.77;6.43;;;7.50;99.90;;;;;;5036098;28;20021;-72
2021/10/15 07:29:49;;;;;;;9.13;6.72;;;7.40;99.90;;;;;;5015361;28;20117;-70
2021/10/15 07:32:14;;;;;;;10.85;6.55;;;7.70;99.90;;;;;;5036171;28;20457;-70
2021/10/15 07:34:40;;;;;;;13.23;7.10;;;7.80;99.90;;;;;;5020620;28;20029;-71
2021/10/15 07:37:06;;;;;;;7.55;6.15;;;7.80;99.90;;;;;;5039285;28;20102;-72
2021/10/15 07:39:32;;;;;;;7.07;6.30;;;8.00;99.90;;;;;;5035524;28;20113;-73
2021/10/15 07:41:58;;;;;;;10.75;6.13;;;8.20;99.90;;;;;;5035577;28;20026;-72
2021/10/15 07:44:23;;;;;;;6.60;5.90;;;8.20;99.90;;;;;;5037054;28;20036;-71
2021/10/15 07:46:49;;;;;;;8.38;6.13;;;8.50;99.90;;;;;;5019560;28;20024;-72
2021/10/15 07:49:15;;;;;;;9.18;6.45;;;8.90;99.90;;;;;;5034738;28;20083;-71
2021/10/15 07:51:40;;;;;;;6.03;5.50;;;8.90;99.90;;;;;;5035119;28;20022;-72
2021/10/15 07:54:06;;;;;;;9.43;6.07;;;9.10;99.90;;;;;;5036081;28;20029;-71
2021/10/15 07:56:34;;;;;;;8.00;5.93;;;9.20;99.90;;;;;;5036607;28;20036;-72
2021/10/15 07:59:00;;;;;;;7.35;5.88;;;9.40;99.90;;;;;;5021327;28;20120;-72
2021/10/15 08:01:26;;;;;;;8.02;6.15;;;9.30;99.90;;;;;;5040419;28;20067;-73
2021/10/15 08:03:52;;;;;;;8.52;6.60;;;9.40;99.90;;;;;;5050118;28;20021;-70
2021/10/15 08:06:18;;;;;;;7.53;6.07;;;9.40;99.90;;;;;;5057932;28;20093;-69
2021/10/15 08:08:44;;;;;;;7.25;6.45;;;9.40;99.90;;;;;;5054434;28;20051;-71
2021/10/15 08:11:11;;;;;;;7.38;6.03;;;9.30;99.90;;;;;;5040826;28;20029;-71
2021/10/15 08:13:37;;;;;;;13.45;7.07;;;9.20;99.90;;;;;;5034840;28;20026;-71
2021/10/15 08:16:03;;;;;;;6.72;6.03;;;9.30;99.90;;;;;;5034785;28;20022;-71
2021/10/15 08:18:29;;;;;;;9.85;6.80;;;9.40;99.90;;;;;;5034008;28;20033;-72
2021/10/15 08:20:57;;;;;;;9.68;7.60;;;9.40;99.90;;;;;;5035660;28;20036;-72
2021/10/15 08:23:24;;;;;;;6.95;6.35;;;9.40;99.90;;;;;;5069028;22;20116;-75
2021/10/15 08:25:49;;;;;;;7.47;6.78;;;9.50;99.90;;;;;;5073376;28;20047;-76
2021/10/15 08:28:15;;;;;;;8.15;6.32;;;9.50;99.90;;;;;;5055285;28;20498;-76
2021/10/15 08:30:41;;;;;;;7.82;6.05;;;9.60;99.90;;;;;;5073176;28;20066;-75
2021/10/15 08:33:06;;;;;;;7.53;6.30;;;9.60;99.90;;;;;;5065850;28;20037;-75
2021/10/15 08:35:32;;;;;;;7.10;6.40;;;9.70;99.90;;;;;;5053136;28;20032;-74
2021/10/15 08:37:58;;;;;;;8.15;6.80;;;9.70;99.90;;;;;;5054372;28;20040;-75
2021/10/15 08:40:24;;;;;;;6.68;6.05;;;9.60;99.90;;;;;;5055293;28;20025;-77
2021/10/15 08:42:51;;;;;;;8.77;5.93;;;9.80;99.90;;;;;;5053957;28;20021;-77
2021/10/15 08:45:21;;;;;;;6.82;6.10;;;9.80;99.90;;;;;;5035234;28;20017;-76
2021/10/15 08:47:47;;;;;;;8.85;7.03;;;9.80;99.90;;;;;;5053793;28;20036;-75
2021/10/15 08:50:12;;;;;;;12.50;6.70;;;9.90;99.90;;;;;;5056749;28;20033;-77
2021/10/15 08:52:38;;;;;;;10.70;6.78;;;9.90;99.90;;;;;;5055044;28;20481;-76
2021/10/15 08:55:04;;;;;;;13.23;6.25;;;10.10;99.90;;;;;;5052880;28;20128;-75
2021/10/15 08:57:29;;;;;;;12.40;7.15;;;9.90;99.90;;;;;;5049335;28;20025;-76
2021/10/15 08:59:55;;;;;;;10.80;6.68;;;10.00;99.90;;;;;;5043429;28;20030;-75
2021/10/15 09:02:22;;;;;;;9.02;6.95;;;10.20;99.90;;;;;;5047368;28;20397;-75
2021/10/15 09:04:49;;;;;;;10.48;7.07;;;10.30;99.90;;;;;;5042918;28;20086;-75
2021/10/15 09:07:16;;;;;;;8.63;6.10;;;10.50;99.90;;;;;;5053581;28;20048;-75
2021/10/15 09:09:43;;;;;;;11.82;8.25;;;10.60;99.90;;;;;;5015978;28;20128;-76
2021/10/15 09:12:15;;;;;;;7.05;6.45;;;10.80;99.90;;;;;;5042838;28;20028;-75
2021/10/15 09:14:42;;;;;;;14.23;8.25;;;10.90;99.90;;;;;;5042967;28;20128;-77
2021/10/15 09:17:24;;;;;;;9.80;6.18;;;10.90;99.90;;;;;;5054342;28;20092;-75
2021/10/15 09:19:53;;;;;;;8.10;6.95;;;10.90;99.90;;;;;;5060098;28;20036;-76
2021/10/15 09:22:29;;;;;;;8.93;6.80;;;11.10;99.90;;;;;;5059871;28;20070;-76
2021/10/15 09:25:17;;;;;;;6.68;6.07;;;11.20;99.90;;;;;;5056411;28;20029;-75
2021/10/15 09:27:46;;;;;;;8.38;7.03;;;11.30;99.90;;;;;;5058324;28;20040;-75
2021/10/15 09:30:15;;;;;;;11.48;7.25;;;11.40;99.90;;;;;;5074997;28;20024;-76
2021/10/15 09:32:49;;;;;;;9.20;7.00;;;11.50;99.90;;;;;;5075175;28;20025;-75
2021/10/15 09:35:18;;;;;;;10.65;8.10;;;11.50;99.90;;;;;;5074631;28;20046;-75
2021/10/15 09:37:46;;;;;;;10.10;7.35;;;11.70;99.90;;;;;;5062781;28;20384;-76
2021/10/15 09:40:17;;;;;;;9.13;7.68;;;11.90;99.90;;;;;;5049250;28;20029;-76
2021/10/15 09:42:46;;;;;;;8.02;7.18;;;11.80;99.90;;;;;;5048196;28;20024;-76
2021/10/15 09:45:15;;;;;;;12.30;8.75;;;12.00;99.90;;;;;;5037969;28;20093;-76
2021/10/15 09:47:52;;;;;;;10.48;7.10;;;12.20;99.90;;;;;;5045924;28;20445;-76
2021/10/15 09:50:26;;;;;;;10.45;7.85;;;12.00;99.90;;;;;;5062747;28;20017;-75
2021/10/15 09:52:55;;;;;;;8.73;7.05;;;12.20;99.90;;;;;;5041449;28;20036;-75
2021/10/15 09:55:31;;;;;;;11.98;7.57;;;12.30;99.90;;;;;;5058190;28;20021;-75
2021/10/15 09:58:12;;;;;;;8.73;6.85;;;12.40;99.90;;;;;;5055066;28;20095;-75
2021/10/15 10:00:38;;;;;;;9.30;6.70;;;12.50;99.90;;;;;;5058204;28;20513;-77
2021/10/15 10:03:04;;;;;;;7.78;6.88;;;12.70;99.90;;;;;;5058101;28;20447;-76
2021/10/15 10:05:30;;;;;;;13.60;7.72;;;12.80;99.90;;;;;;5041373;28;20108;-77
2021/10/15 10:07:56;;;;;;;11.93;6.70;;;13.00;99.90;;;;;;5059240;28;20020;-75
2021/10/15 10:10:25;;;;;;;7.30;6.60;;;12.90;99.90;;;;;;5057233;28;20031;-75
2021/10/15 10:12:52;;;;;;;10.65;7.85;;;13.10;99.90;;;;;;5056188;28;20029;-76
2021/10/15 10:15:23;;;;;;;10.07;7.07;;;13.10;99.90;;;;;;5057935;28;20033;-77
2021/10/15 10:17:52;;;;;;;12.70;7.90;;;13.40;99.90;;;;;;5058658;28;20021;-76
2021/10/15 10:20:25;;;;;;;10.43;6.80;;;13.60;99.90;;;;;;5060254;28;20028;-76
2021/10/15 10:23:23;;;;;;;10.70;6.43;;;13.60;99.90;;;;;;5044622;28;20033;-76
2021/10/15 10:25:54;;;;;;;10.35;7.00;;;13.60;99.90;;;;;;5057806;28;20024;-75
2021/10/15 10:28:22;;;;;;;9.93;6.38;;;13.70;99.90;;;;;;5039066;28;20040;-75
2021/10/15 10:30:50;;;;;;;8.57;5.70;;;13.70;99.90;;;;;;5056178;28;20473;-75
2021/10/15 10:33:17;;;;;;;7.07;6.05;;;13.90;99.90;;;;;;5073378;28;20077;-76
2021/10/15 10:35:43;;;;;;;6.95;5.55;;;13.90;99.90;;;;;;5080174;28;20042;-74
2021/10/15 10:38:21;;;;;;;5.32;4.82;;;13.90;99.90;;;;;;5079634;28;20048;-76
2021/10/15 10:41:02;;;;;;;9.32;5.00;;;13.80;99.90;;;;;;5072648;28;20037;-75
2021/10/15 10:43:27;;;;;;;;;;;13.90;99.90;;;;;;5079213;28;20040;-75
2021/10/15 10:46:08;;;;;;;6.35;5.70;;;14.00;99.90;;;;;;5068893;28;19912;-77
2021/10/15 10:48:46;;;;;;;7.45;5.03;;;14.10;99.90;;;;;;5063498;28;20029;-75
2021/10/15 10:51:32;;;;;;;9.15;4.50;;;14.30;99.90;;;;;;5059692;28;20052;-77
2021/10/15 10:54:03;;;;;;;8.38;5.20;;;14.40;99.90;;;;;;5059031;28;20459;-77
2021/10/15 10:56:38;;;;;;;5.68;4.85;;;14.30;99.90;;;;;;5058284;28;20025;-76
2021/10/15 10:59:25;;;;;;;6.13;4.97;;;14.60;99.90;;;;;;5060369;28;20029;-77
2021/10/15 11:01:55;;;;;;;7.60;4.68;;;14.80;99.90;;;;;;5047200;28;20035;-77
2021/10/15 11:04:28;;;;;;;6.85;4.78;;;14.80;99.90;;;;;;5064321;28;20024;-78
2021/10/15 11:07:04;;;;;;;5.00;4.55;;;14.90;99.90;;;;;;5058599;28;20104;-77
2021/10/15 11:09:38;;;;;;;6.30;4.82;;;14.90;99.90;;;;;;5059126;28;20029;-77
2021/10/15 11:12:04;;;;;;;10.23;4.32;;;14.90;99.90;;;;;;5057371;28;20108;-76
2021/10/15 11:15:21;;;;;;;4.93;3.88;;;14.90;99.90;;;;;;5053508;28;20455;-76
2021/10/15 11:17:48;;;;;;;5.60;4.00;;;15.10;99.90;;;;;;5017671;28;20056;-76
2021/10/15 11:20:26;;;;;;;6.13;4.55;;;15.00;99.90;;;;;;5054026;28;20568;-75
2021/10/15 11:23:09;;;;;;;5.38;4.38;;;15.20;99.90;;;;;;5055256;28;20091;-75
2021/10/15 11:25:41;;;;;;;5.97;3.53;;;15.10;99.90;;;;;;5037000;28;20108;-76
2021/10/15 11:28:11;;;;;;;4.38;2.85;;;15.10;99.90;;;;;;5059176;28;20277;-75
2021/10/15 11:30:42;;;;;;;3.63;2.58;;;14.90;99.90;;;;;;5059249;28;20412;-75
2021/10/15 11:33:08;;;;;;;3.38;2.50;;;15.00;99.90;;;;;;5058416;28;20443;-75
2021/10/15 11:35:37;;;;;;;3.13;2.83;;;15.00;99.90;;;;;;5055426;28;20029;-76
2021/10/15 11:38:19;;;;;;;3.35;2.42;;;14.70;99.90;;;;;;5055805;28;20017;-76
2021/10/15 11:41:09;;;;;;;5.95;3.60;;;14.90;99.90;;;;;;5061846;28;20035;-75
2021/10/15 11:43:37;;;;;;;4.45;3.25;;;14.90;99.90;;;;;;5054158;28;20094;-75
2021/10/15 11:46:06;;;;;;;4.80;3.40;;;14.70;99.90;;;;;;5057958;28;20032;-76
2021/10/15 11:48:38;;;;;;;3.85;2.60;;;14.70;99.90;;;;;;5058102;28;20384;-75
2021/10/15 11:51:08;;;;;;;3.30;3.00;;;14.80;99.90;;;;;;5063568;28;20397;-76
2021/10/15 11:53:40;;;;;;;3.92;2.97;;;14.80;99.90;;;;;;5058712;28;20028;-75
2021/10/15 11:56:09;;;;;;;3.75;3.45;;;14.80;99.90;;;;;;5040947;28;20055;-77
2021/10/15 11:58:43;;;;;;;3.83;3.00;;;15.00;99.90;;;;;;5056120;28;20116;-76
2021/10/15 12:01:20;;;;;;;3.58;3.28;;;15.10;99.90;;;;;;5058704;28;20033;-77
2021/10/15 12:04:07;;;;;;;6.13;2.83;;;15.10;99.90;;;;;;5053804;28;20025;-76
2021/10/15 12:06:47;;;;;;;5.25;3.00;;;15.10;99.90;;;;;;5051801;28;20059;-76
2021/10/15 12:09:17;;;;;;;6.35;3.25;;;15.00;99.90;;;;;;5059809;28;20025;-75
2021/10/15 12:12:08;;;;;;;4.47;3.10;;;15.10;99.90;;;;;;5051541;28;20028;-75
2021/10/15 12:14:35;;;;;;;4.13;2.78;;;15.20;99.90;;;;;;5058983;28;20045;-75
2021/10/15 12:17:06;;;;;;;8.02;2.88;;;15.30;99.90;;;;;;5059510;28;20070;-77
2021/10/15 12:19:33;;;;;;;;;;;15.50;99.90;;;;;;5056223;28;20492;-75
2021/10/15 12:22:12;;;;;;;3.22;2.70;;;15.70;99.90;;;;;;5050856;28;19913;-75
2021/10/15 12:24:38;;;;;;;6.15;2.85;;;15.60;99.90;;;;;;5039282;28;20033;-76
2021/10/15 12:27:11;;;;;;;4.05;3.22;;;15.50;99.90;;;;;;5059586;28;20031;-76
2021/10/15 12:29:47;;;;;;;3.70;2.90;;;15.40;99.90;;;;;;5059954;28;20092;-75
2021/10/15 12:32:37;;;;;;;4.97;2.60;;;15.40;99.90;;;;;;5058045;28;20029;-76
2021/10/15 12:35:15;;;;;;;3.22;2.92;;;15.40;99.90;;;;;;5052064;28;20041;-76
2021/10/15 12:37:49;;;;;;;6.63;2.90;;;15.40;99.90;;;;;;5038321;28;20037;-76
2021/10/15 12:40:24;;;;;;;6.80;3.20;;;15.30;99.90;;;;;;5037465;28;20018;-76
2021/10/15 12:42:58;;;;;;;7.65;3.30;;;15.20;99.90;;;;;;5050134;28;20021;-76
2021/10/15 12:45:25;;;;;;;10.23;3.35;;;15.30;99.90;;;;;;5055906;28;20035;-76
2021/10/15 12:48:00;;;;;;;3.40;2.75;;;15.30;99.90;;;;;;5055999;28;20577;-75
2021/10/15 12:50:27;;;;;;;2.95;2.72;;;15.30;99.90;;;;;;5057856;28;20029;-75
2021/10/15 12:52:54;;;;;;;4.40;2.60;;;15.40;99.90;;;;;;5072712;28;20050;-74
2021/10/15 12:55:23;;;;;;;3.75;3.03;;;15.30;99.90;;;;;;5060192;28;20050;-76
2021/10/15 12:57:59;;;;;;;4.03;2.70;;;15.40;99.90;;;;;;5056748;28;20090;-77
2021/10/15 13:00:25;;;;;;;4.97;2.60;;;15.50;99.90;;;;;;5057187;28;20459;-74
2021/10/15 13:03:02;;;;;;;3.90;2.83;;;15.60;99.90;;;;;;5055689;28;20021;-75
2021/10/15 13:05:29;;;;;;;5.45;3.17;;;15.70;99.90;;;;;;5056187;28;20027;-76
2021/10/15 13:07:55;;;;;;;3.10;2.45;;;15.80;99.90;;;;;;5058995;28;20361;-76